Time;durP1;ratioP1;P1;durP2;ratioP2;P2;SDS_P1;SDS_P2;PMS_P1;PMS_P2;Temp;Humidity;BMP_temperature;BMP_pressure;BME280_temperature;BME280_humidity;BME280_pressure;Samples;Min_cycle;Max_cycle;Signal;HPM_P1;HPM_P2
2021/03/14 00:00:43;;;;;;;2.07;0.90;;;;;;;5.05;74.57;97607.91;5108777;27;41621;-77
2021/03/14 00:03:14;;;;;;;3.93;0.80;;;;;;;4.94;75.10;97602.47;5107099;28;41448;-77
2021/03/14 00:05:43;;;;;;;2.07;0.87;;;;;;;5.03;74.97;97620.28;5107103;28;42758;-78
2021/03/14 00:08:11;;;;;;;1.23;0.73;;;;;;;4.99;75.34;97622.22;5106938;28;41173;-77
2021/03/14 00:10:40;;;;;;;2.30;0.80;;;;;;;4.98;75.12;97625.78;5107063;28;39874;-80
2021/03/14 00:13:07;;;;;;;2.03;0.93;;;;;;;4.98;75.25;97624.94;5108414;27;42338;-77
2021/03/14 00:15:34;;;;;;;2.10;0.87;;;;;;;4.91;75.50;97621.00;5090367;28;41830;-78
2021/03/14 00:18:01;;;;;;;2.03;1.10;;;;;;;4.97;75.65;97626.72;5107524;28;41389;-77
2021/03/14 00:20:29;;;;;;;3.00;1.20;;;;;;;4.82;76.02;97606.63;5108555;27;40891;-82
2021/03/14 00:22:56;;;;;;;2.60;0.90;;;;;;;4.89;76.67;97633.34;5106289;28;42414;-79
2021/03/14 00:25:24;;;;;;;1.33;0.90;;;;;;;4.85;76.69;97623.97;5106842;28;43070;-76
2021/03/14 00:27:51;;;;;;;1.47;0.87;;;;;;;4.86;76.83;97628.28;5086469;28;41252;-77
2021/03/14 00:30:19;;;;;;;1.90;0.90;;;;;;;4.70;77.25;97618.69;5106569;28;39103;-80
2021/03/14 00:32:46;;;;;;;1.67;0.93;;;;;;;4.49;76.77;97582.41;5106787;28;41725;-77
2021/03/14 00:35:16;;;;;;;2.37;0.90;;;;;;;4.64;77.05;97608.56;5093410;28;42155;-76
2021/03/14 00:37:45;;;;;;;1.07;0.70;;;;;;;4.75;77.02;97631.53;5109292;28;42327;-76
2021/03/14 00:40:12;;;;;;;1.50;0.83;;;;;;;4.70;77.42;97629.19;5110504;28;38807;-78
2021/03/14 00:42:39;;;;;;;1.53;0.83;;;;;;;4.57;77.34;97628.22;5111897;27;41459;-75
2021/03/14 00:45:09;;;;;;;0.90;0.77;;;;;;;4.63;77.07;97646.22;5110065;28;42817;-80
2021/03/14 00:47:36;;;;;;;1.10;0.63;;;;;;;4.60;77.16;97656.88;5111087;27;42988;-77
2021/03/14 00:50:06;;;;;;;1.50;0.80;;;;;;;4.63;77.30;97655.84;5106256;28;40284;-81
2021/03/14 00:52:34;;;;;;;1.90;0.97;;;;;;;4.69;77.51;97668.63;5109650;28;41700;-78
2021/03/14 00:55:03;;;;;;;0.83;0.57;;;;;;;4.68;77.33;97662.53;5093151;28;41910;-77
2021/03/14 00:57:30;;;;;;;2.03;1.13;;;;;;;4.72;77.09;97672.81;5110401;28;43454;-81
2021/03/14 00:59:58;;;;;;;0.73;0.73;;;;;;;4.52;77.26;97656.47;5092383;28;39331;-78
2021/03/14 01:02:25;;;;;;;0.97;0.90;;;;;;;4.69;77.47;97671.25;5110192;28;41605;-80
2021/03/14 01:04:53;;;;;;;2.43;1.03;;;;;;;4.73;77.52;97682.38;5093769;28;41796;-78
2021/03/14 01:07:20;;;;;;;1.20;0.80;;;;;;;4.75;77.58;97672.66;5113415;28;42032;-77
2021/03/14 01:09:48;;;;;;;1.20;0.67;;;;;;;4.72;77.56;97667.59;5114440;27;39598;-77
2021/03/14 01:12:16;;;;;;;1.57;0.80;;;;;;;4.72;77.40;97672.81;5096013;28;40517;-78
2021/03/14 01:14:53;;;;;;;3.10;0.87;;;;;;;4.62;77.27;97662.88;5096443;28;41797;-79
2021/03/14 01:17:29;;;;;;;0.67;0.60;;;;;;;4.70;77.11;97679.00;5096388;28;41240;-77
2021/03/14 01:19:56;;;;;;;2.27;0.80;;;;;;;4.72;76.87;97678.06;5112685;28;39879;-76
2021/03/14 01:22:23;;;;;;;1.50;1.10;;;;;;;4.43;76.83;97638.66;5113000;28;41041;-76
2021/03/14 01:24:50;;;;;;;3.00;0.77;;;;;;;4.57;77.19;97669.34;5113292;28;41680;-78
2021/03/14 01:27:18;;;;;;;1.33;0.70;;;;;;;4.61;77.06;97679.53;5112518;28;42277;-78
2021/03/14 01:29:45;;;;;;;0.80;0.70;;;;;;;4.61;76.80;97682.16;5096241;28;39979;-79
2021/03/14 01:32:12;;;;;;;2.53;0.93;;;;;;;4.61;77.01;97679.53;5112464;28;42186;-75
2021/03/14 01:34:39;;;;;;;2.90;0.70;;;;;;;4.60;76.75;97674.38;5113876;27;42673;-77
2021/03/14 01:37:08;;;;;;;1.60;0.70;;;;;;;4.62;76.80;97689.09;5113667;27;42126;-76
2021/03/14 01:39:35;;;;;;;2.47;0.70;;;;;;;4.62;76.58;97683.00;5112079;28;40822;-78
2021/03/14 01:42:02;;;;;;;1.53;0.70;;;;;;;4.65;76.44;97694.19;5111908;27;41984;-76
2021/03/14 01:44:30;;;;;;;2.10;0.63;;;;;;;4.65;76.52;97694.19;5093586;28;41620;-78
2021/03/14 01:46:57;;;;;;;2.33;0.73;;;;;;;4.63;76.69;97685.53;5111695;27;42950;-78
2021/03/14 01:49:24;;;;;;;1.53;0.87;;;;;;;4.62;76.50;97683.00;5110921;28;39758;-77
2021/03/14 01:51:52;;;;;;;2.27;0.93;;;;;;;4.61;76.71;97678.69;5111789;27;42273;-78
2021/03/14 01:54:19;;;;;;;2.57;0.80;;;;;;;4.67;76.62;97688.84;5110440;28;43303;-77
2021/03/14 01:56:46;;;;;;;2.63;0.80;;;;;;;4.68;76.27;97687.91;5111497;27;43384;-77
2021/03/14 01:59:14;;;;;;;4.83;0.80;;;;;;;4.55;76.15;97666.81;5095593;28;40001;-78
2021/03/14 02:01:42;;;;;;;4.00;0.90;;;;;;;4.49;76.00;97667.13;5113299;27;41650;-79
2021/03/14 02:04:09;;;;;;;2.30;0.70;;;;;;;4.68;76.26;97694.00;5111934;28;42501;-79
2021/03/14 02:06:37;;;;;;;2.00;0.80;;;;;;;4.68;76.47;97694.00;5095208;28;41481;-78
2021/03/14 02:09:04;;;;;;;3.67;1.13;;;;;;;4.62;76.54;97677.75;5111843;28;39651;-77
2021/03/14 02:11:36;;;;;;;2.27;1.00;;;;;;;4.64;76.64;97681.16;5112276;28;40799;-77
2021/03/14 02:14:04;;;;;;;5.10;1.00;;;;;;;4.65;76.66;97695.94;5112326;28;43041;-75
2021/03/14 02:16:36;;;;;;;3.30;1.27;;;;;;;4.64;76.39;97697.72;5095226;28;41350;-79
2021/03/14 02:19:08;;;;;;;4.00;1.43;;;;;;;4.51;76.45;97681.00;5111560;28;39818;-76
2021/03/14 02:21:36;;;;;;;2.00;0.80;;;;;;;4.63;76.40;97705.69;5111267;28;42194;-75
2021/03/14 02:24:06;;;;;;;1.37;1.00;;;;;;;4.60;76.61;97701.44;5112003;28;42939;-76
2021/03/14 02:26:40;;;;;;;1.40;0.90;;;;;;;4.56;76.79;97693.88;5111462;28;42219;-77
2021/03/14 02:29:10;;;;;;;1.93;1.00;;;;;;;4.52;76.66;97703.66;5095349;28;39874;-78
2021/03/14 02:31:41;;;;;;;3.20;1.00;;;;;;;4.57;77.11;97712.13;5112904;27;42193;-77
2021/03/14 02:34:12;;;;;;;3.20;1.40;;;;;;;4.56;77.33;97714.84;5113129;27;42119;-75
2021/03/14 02:36:44;;;;;;;2.80;1.60;;;;;;;4.48;77.33;97696.91;5111592;28;42909;-77
2021/03/14 02:39:15;;;;;;;2.53;1.93;;;;;;;4.56;77.30;97717.47;5095178;28;39217;-78
2021/03/14 02:41:43;;;;;;;2.03;1.37;;;;;;;4.56;76.94;97709.59;5113330;27;42480;-76
2021/03/14 02:44:14;;;;;;;1.97;1.30;;;;;;;4.56;77.06;97714.84;5111394;28;43485;-75
2021/03/14 02:46:42;;;;;;;1.33;0.90;;;;;;;4.58;77.16;97721.66;5111873;28;41368;-78
2021/03/14 02:49:09;;;;;;;5.23;1.43;;;;;;;4.58;77.39;97723.44;5111693;28;40582;-79
2021/03/14 02:51:39;;;;;;;4.33;1.27;;;;;;;4.58;77.27;97724.28;5110902;28;42447;-77
2021/03/14 02:54:07;;;;;;;3.70;1.80;;;;;;;4.54;77.18;97722.78;5111018;28;43052;-78
2021/03/14 02:56:35;;;;;;;2.43;1.40;;;;;;;4.58;77.38;97726.91;5110433;27;41407;-77
2021/03/14 02:59:03;;;;;;;3.70;1.30;;;;;;;4.23;77.45;97676.47;5094585;28;38940;-79
2021/03/14 03:01:32;;;;;;;5.33;1.57;;;;;;;4.66;77.15;97737.81;5111307;28;42159;-80
2021/03/14 03:04:01;;;;;;;5.80;1.40;;;;;;;4.49;77.24;97719.56;5111302;28;42243;-77
2021/03/14 03:06:29;;;;;;;4.23;1.60;;;;;;;4.61;77.33;97724.13;5111214;28;42267;-76
2021/03/14 03:08:56;;;;;;;4.13;1.37;;;;;;;4.55;76.88;97726.25;5111323;28;39909;-77
2021/03/14 03:11:24;;;;;;;5.47;1.33;;;;;;;4.68;77.32;97750.84;5094440;28;40680;-79
2021/03/14 03:13:53;;;;;;;6.53;1.57;;;;;;;4.70;77.19;97755.03;5111408;28;42712;-77
2021/03/14 03:16:24;;;;;;;4.90;1.70;;;;;;;4.65;76.94;97740.53;5110669;28;42213;-78
2021/03/14 03:18:53;;;;;;;5.30;1.60;;;;;;;4.77;77.04;97770.44;5110874;28;40925;-76
2021/03/14 03:21:21;;;;;;;3.63;1.40;;;;;;;4.69;77.15;97756.00;5110776;28;42478;-77
2021/03/14 03:23:49;;;;;;;5.07;1.60;;;;;;;4.78;76.92;97759.03;5145772;27;43429;-79
2021/03/14 03:26:16;;;;;;;4.53;1.23;;;;;;;4.79;76.86;97763.34;5111000;28;41823;-77
2021/03/14 03:28:44;;;;;;;4.67;1.60;;;;;;;4.63;76.44;97740.59;5094438;28;39945;-78
2021/03/14 03:31:11;;;;;;;1.97;1.30;;;;;;;4.72;76.86;97772.47;5112217;27;41703;-78
2021/03/14 03:33:39;;;;;;;3.37;1.67;;;;;;;4.64;77.00;97771.13;5110992;28;43496;-76
2021/03/14 03:36:07;;;;;;;4.77;1.73;;;;;;;4.62;77.30;97782.63;5111914;27;42076;-77
2021/03/14 03:38:35;;;;;;;6.43;1.83;;;;;;;4.58;77.56;97787.19;5111087;28;40607;-78
2021/03/14 03:41:03;;;;;;;4.83;1.87;;;;;;;4.64;77.32;97791.28;5110584;28;42125;-78
2021/03/14 03:43:34;;;;;;;3.73;1.50;;;;;;;4.63;76.80;97774.69;5110785;28;43439;-77
2021/03/14 03:46:03;;;;;;;5.17;1.50;;;;;;;4.82;76.84;97799.91;5093779;28;42149;-78
2021/03/14 03:48:37;;;;;;;3.33;1.50;;;;;;;4.76;76.46;97789.75;5111840;27;39814;-76
2021/03/14 03:51:05;;;;;;;3.97;1.97;;;;;;;4.96;76.20;97818.31;5110963;28;40635;-77
2021/03/14 03:53:34;;;;;;;3.90;1.53;;;;;;;5.01;76.14;97817.13;5145190;27;43450;-76
2021/03/14 03:56:02;;;;;;;3.27;1.70;;;;;;;5.04;76.02;97827.44;5093433;28;40685;-78
2021/03/14 03:58:31;;;;;;;2.77;1.50;;;;;;;5.10;75.85;97831.50;5093749;28;39913;-77
2021/03/14 04:00:59;;;;;;;5.33;2.07;;;;;;;5.14;75.60;97842.66;5112075;27;42304;-75
2021/03/14 04:03:26;;;;;;;4.90;1.70;;;;;;;5.16;75.41;97841.66;5111710;27;42751;-77
2021/03/14 04:05:57;;;;;;;4.70;1.60;;;;;;;5.15;75.31;97845.22;5109285;27;42388;-75
2021/03/14 04:08:25;;;;;;;2.13;1.83;;;;;;;5.17;75.63;97843.34;5093462;28;40806;-76
2021/03/14 04:10:54;;;;;;;5.13;1.60;;;;;;;5.13;75.70;97831.31;5110048;28;42170;-76
2021/03/14 04:13:22;;;;;;;5.33;1.87;;;;;;;5.09;75.65;97829.78;5110281;28;41972;-78
2021/03/14 04:15:49;;;;;;;4.17;1.80;;;;;;;5.18;75.92;97858.16;5109941;28;42679;-78
2021/03/14 04:18:18;;;;;;;6.63;2.20;;;;;;;5.18;75.67;97857.31;5110131;28;39898;-78
2021/03/14 04:20:48;;;;;;;4.37;2.20;;;;;;;5.17;75.98;97861.72;5092749;28;41523;-78
2021/03/14 04:23:19;;;;;;;6.00;1.90;;;;;;;5.16;75.82;97867.91;5110145;28;42762;-76
2021/03/14 04:25:49;;;;;;;3.93;2.60;;;;;;;5.17;75.82;97864.34;5111986;27;43034;-76
2021/03/14 04:28:19;;;;;;;6.47;2.40;;;;;;;5.17;75.59;97869.59;5111591;27;39272;-79
2021/03/14 04:30:46;;;;;;;5.10;2.67;;;;;;;5.20;75.60;97873.78;5109645;28;41477;-76
2021/03/14 04:33:15;;;;;;;4.27;2.30;;;;;;;5.24;75.41;97876.16;5093118;28;42995;-76
2021/03/14 04:35:43;;;;;;;4.17;2.37;;;;;;;5.18;75.75;97866.03;5109830;28;42158;-76
2021/03/14 04:38:11;;;;;;;5.13;2.53;;;;;;;5.25;75.98;97883.13;5093096;28;39175;-76
2021/03/14 04:40:40;;;;;;;4.70;2.43;;;;;;;5.16;75.78;97867.91;5093465;28;40752;-77
2021/03/14 04:43:07;;;;;;;5.17;2.67;;;;;;;5.30;75.90;97883.72;5110812;27;42382;-77
2021/03/14 04:45:36;;;;;;;3.23;2.50;;;;;;;5.27;75.92;97891.75;5109663;28;42264;-78
2021/03/14 04:48:03;;;;;;;5.67;2.53;;;;;;;5.09;75.89;97870.94;5109593;28;40582;-79
2021/03/14 04:50:31;;;;;;;4.63;2.70;;;;;;;5.31;75.64;97909.03;5109872;28;41445;-79
2021/03/14 04:53:00;;;;;;;6.07;2.73;;;;;;;5.30;75.55;97920.47;5092768;28;41789;-76
2021/03/14 04:55:31;;;;;;;7.87;3.30;;;;;;;5.27;75.54;97911.91;5111099;27;42538;-78
2021/03/14 04:57:59;;;;;;;4.20;3.00;;;;;;;5.22;75.72;97920.03;5110751;27;41599;-77
2021/03/14 05:00:29;;;;;;;6.97;2.60;;;;;;;5.29;75.42;97929.28;5109469;28;41719;-75
2021/03/14 05:02:59;;;;;;;4.03;2.70;;;;;;;5.22;75.64;97911.31;5092643;28;42066;-75
2021/03/14 05:05:27;;;;;;;5.97;2.93;;;;;;;5.33;75.49;97941.28;5109615;28;41915;-76
2021/03/14 05:07:54;;;;;;;5.83;2.57;;;;;;;5.33;75.33;97943.91;5144415;27;40684;-77
2021/03/14 05:10:24;;;;;;;4.17;3.20;;;;;;;5.32;75.08;97941.34;5126486;27;42455;-78
2021/03/14 05:12:52;;;;;;;4.97;2.87;;;;;;;5.37;74.94;97950.69;5125648;27;43398;-77
2021/03/14 05:15:20;;;;;;;5.47;2.40;;;;;;;5.37;75.13;97948.06;5127913;27;42843;-76
2021/03/14 05:17:48;;;;;;;4.47;2.60;;;;;;;5.38;75.06;97956.78;5109942;28;39967;-77
2021/03/14 05:20:18;;;;;;;4.30;2.73;;;;;;;5.39;75.02;97969.81;5128010;28;40861;-76
2021/03/14 05:22:47;;;;;;;3.73;2.50;;;;;;;5.39;74.74;97975.06;5095903;28;41988;-76
2021/03/14 05:25:17;;;;;;;4.60;2.60;;;;;;;5.31;74.54;97965.94;5112630;28;43004;-76
2021/03/14 05:27:49;;;;;;;4.63;2.20;;;;;;;5.40;74.20;97984.66;5095625;28;40394;-78
2021/03/14 05:30:19;;;;;;;4.13;2.20;;;;;;;5.36;74.07;97979.63;5112970;28;39785;-78
2021/03/14 05:32:46;;;;;;;5.77;2.00;;;;;;;5.46;73.94;97990.47;5113432;27;42339;-78
2021/03/14 05:35:13;;;;;;;3.33;2.20;;;;;;;5.37;74.15;97970.84;5112703;28;42953;-77
2021/03/14 05:37:41;;;;;;;3.37;2.23;;;;;;;5.46;73.90;97996.56;5113053;28;39144;-75
2021/03/14 05:40:09;;;;;;;4.20;2.30;;;;;;;5.37;73.85;97979.56;5095976;28;41678;-78
2021/03/14 05:42:37;;;;;;;5.70;2.37;;;;;;;5.38;73.81;97989.13;5112481;28;42724;-76
2021/03/14 05:45:06;;;;;;;5.93;2.10;;;;;;;5.45;73.72;97992.25;5107024;28;42380;-80
2021/03/14 05:47:33;;;;;;;5.47;2.07;;;;;;;5.48;73.46;97999.09;5075332;28;40066;-78
2021/03/14 05:50:00;;;;;;;3.90;2.13;;;;;;;5.58;73.70;98016.88;5093272;28;42348;-79
2021/03/14 05:52:28;;;;;;;4.50;1.97;;;;;;;5.61;73.27;98021.97;5091859;28;42661;-75
2021/03/14 05:54:57;;;;;;;6.47;2.37;;;;;;;5.61;73.31;98023.75;5075430;28;41553;-76
2021/03/14 05:57:25;;;;;;;3.43;2.00;;;;;;;5.68;73.18;98033.00;5092150;28;39930;-77
2021/03/14 05:59:53;;;;;;;4.33;2.00;;;;;;;5.68;73.53;98039.09;5107519;28;41644;-77
2021/03/14 06:02:21;;;;;;;5.17;2.23;;;;;;;5.65;73.27;98039.28;5095211;28;42663;-78
2021/03/14 06:04:52;;;;;;;5.73;2.83;;;;;;;5.61;73.90;98052.66;5113992;27;41966;-77
2021/03/14 06:07:20;;;;;;;4.67;2.37;;;;;;;5.59;73.82;98047.47;5111941;28;39818;-78
2021/03/14 06:09:48;;;;;;;5.63;2.40;;;;;;;5.59;74.12;98057.13;5092902;28;41641;-79
2021/03/14 06:12:16;;;;;;;3.80;2.27;;;;;;;5.59;73.88;98059.75;5093020;28;42760;-78
2021/03/14 06:14:43;;;;;;;2.97;2.00;;;;;;;5.52;73.87;98059.25;5092032;28;41701;-79
2021/03/14 06:17:13;;;;;;;7.60;2.10;;;;;;;5.55;73.52;98068.75;5100602;28;39407;-77
2021/03/14 06:19:41;;;;;;;3.30;2.00;;;;;;;5.55;73.73;98077.47;5112308;28;40775;-76
2021/03/14 06:22:18;;;;;;;4.17;1.87;;;;;;;5.44;73.53;98065.88;5112661;27;42640;-77
2021/03/14 06:24:46;;;;;;;4.87;1.70;;;;;;;5.50;73.41;98086.53;5112587;28;42286;-79
2021/03/14 06:27:32;;;;;;;3.07;1.70;;;;;;;5.44;73.78;98071.94;5129169;27;38609;-78
2021/03/14 06:30:00;;;;;;;3.63;1.60;;;;;;;5.48;73.66;98094.50;5094955;28;40799;-75
2021/03/14 06:32:28;;;;;;;2.47;1.60;;;;;;;5.43;73.30;98101.78;5111435;28;41926;-76
2021/03/14 06:35:10;;;;;;;2.03;1.50;;;;;;;5.46;73.74;98119.13;5094795;28;41310;-75
2021/03/14 06:37:37;;;;;;;2.47;1.73;;;;;;;5.54;73.63;98130.09;5111994;28;40899;-79
2021/03/14 06:40:09;;;;;;;1.90;1.67;;;;;;;5.58;73.64;98136.84;5111719;28;42062;-78
2021/03/14 06:42:38;;;;;;;3.07;1.87;;;;;;;5.59;72.83;98141.16;5111922;28;43294;-78
2021/03/14 06:45:07;;;;;;;2.37;1.57;;;;;;;5.65;73.14;98144.34;5111758;28;42262;-76
2021/03/14 06:47:40;;;;;;;2.10;1.60;;;;;;;5.73;73.07;98151.78;5094617;28;39167;-75
2021/03/14 06:50:10;;;;;;;3.73;2.00;;;;;;;5.78;72.34;98158.50;5111344;28;41252;-76
2021/03/14 06:52:37;;;;;;;4.00;1.90;;;;;;;5.80;72.31;98152.31;5111069;28;42572;-76
2021/03/14 06:55:05;;;;;;;2.10;1.50;;;;;;;5.95;72.53;98180.41;5111702;28;42019;-78
2021/03/14 06:57:32;;;;;;;4.53;1.70;;;;;;;5.97;71.96;98176.75;5111529;28;39820;-77
2021/03/14 07:00:00;;;;;;;3.53;1.47;;;;;;;6.02;72.20;98173.88;5111349;28;41476;-78
2021/03/14 07:02:28;;;;;;;3.00;1.80;;;;;;;6.10;71.58;98177.78;5111329;28;43471;-77
2021/03/14 07:04:57;;;;;;;3.83;1.47;;;;;;;6.21;71.19;98185.06;5091661;28;42659;-75
2021/03/14 07:07:27;;;;;;;1.80;1.70;;;;;;;6.26;70.99;98192.72;5110627;28;40690;-76
2021/03/14 07:09:57;;;;;;;2.63;1.50;;;;;;;6.22;70.64;98199.06;5107493;28;41593;-76
2021/03/14 07:12:29;;;;;;;4.23;1.63;;;;;;;6.33;70.34;98199.31;5107321;28;42002;-79
2021/03/14 07:14:57;;;;;;;2.37;1.50;;;;;;;6.42;70.01;98211.97;5091467;28;41372;-77
2021/03/14 07:17:36;;;;;;;1.63;1.20;;;;;;;6.55;69.64;98215.59;5091617;28;38811;-78
2021/03/14 07:20:10;;;;;;;3.23;1.60;;;;;;;6.71;69.49;98215.56;5107029;28;41655;-78
2021/03/14 07:22:38;;;;;;;2.80;1.27;;;;;;;6.74;68.40;98221.50;5107843;28;42721;-78
2021/03/14 07:25:07;;;;;;;2.30;1.30;;;;;;;6.87;68.09;98239.22;5108580;27;41678;-78
2021/03/14 07:27:34;;;;;;;2.00;1.20;;;;;;;6.73;68.10;98225.06;5107687;28;40603;-79
2021/03/14 07:30:04;;;;;;;1.40;1.10;;;;;;;6.73;67.81;98235.59;5091771;28;20713;-79
2021/03/14 07:32:31;;;;;;;2.60;1.20;;;;;;;6.81;68.00;98254.41;5108761;27;42244;-78
2021/03/14 07:35:02;;;;;;;2.70;1.27;;;;;;;6.73;67.90;98240.84;5107168;28;41688;-77
2021/03/14 07:37:30;;;;;;;2.40;1.40;;;;;;;6.78;67.81;98243.25;5108744;27;40472;-77
2021/03/14 07:39:57;;;;;;;1.93;1.40;;;;;;;6.90;67.49;98262.75;5090161;28;42426;-78
2021/03/14 07:42:25;;;;;;;1.53;1.20;;;;;;;6.93;67.48;98273.06;5108293;27;42402;-77
2021/03/14 07:44:52;;;;;;;2.10;1.30;;;;;;;7.02;67.44;98272.56;5107359;28;41881;-78
2021/03/14 07:47:20;;;;;;;1.83;1.20;;;;;;;6.97;66.76;98277.22;5107607;28;39804;-78
2021/03/14 07:49:51;;;;;;;2.03;1.50;;;;;;;6.94;66.34;98275.63;5106892;28;41455;-78
2021/03/14 07:52:26;;;;;;;2.40;1.60;;;;;;;7.13;65.85;98294.72;5108443;27;43242;-77
2021/03/14 07:54:57;;;;;;;2.83;1.83;;;;;;;7.26;65.97;98286.94;5105743;28;42731;-76
2021/03/14 07:57:26;;;;;;;2.13;1.63;;;;;;;7.46;65.89;98304.22;5104181;28;39872;-78
2021/03/14 07:59:53;;;;;;;1.73;1.60;;;;;;;7.54;64.89;98308.09;5105407;28;41464;-76
2021/03/14 08:02:28;;;;;;;4.93;2.00;;;;;;;7.70;65.08;98309.81;5106421;28;42425;-77
2021/03/14 08:04:58;;;;;;;3.53;1.87;;;;;;;7.85;63.67;98322.09;5104945;28;42168;-78
2021/03/14 08:07:43;;;;;;;3.53;1.90;;;;;;;8.06;63.24;98322.56;5108337;27;40661;-78
2021/03/14 08:10:12;;;;;;;4.03;1.90;;;;;;;8.36;62.34;98327.81;5089646;28;40829;-77
2021/03/14 08:12:40;;;;;;;2.60;1.60;;;;;;;8.58;61.97;98322.88;5106465;28;42561;-77
2021/03/14 08:15:29;;;;;;;3.03;1.70;;;;;;;9.20;60.86;98349.69;5089620;28;42310;-76
2021/03/14 08:17:58;;;;;;;3.50;1.60;;;;;;;9.81;59.21;98348.28;5100537;28;41579;-79
2021/03/14 08:20:36;;;;;;;3.87;1.70;;;;;;;10.97;54.27;98388.72;5106704;28;41898;-78
2021/03/14 08:23:05;;;;;;;2.43;1.20;;;;;;;11.38;52.89;98388.34;5107390;28;43158;-79
2021/03/14 08:25:38;;;;;;;2.07;1.50;;;;;;;12.39;51.12;98390.44;5107281;28;42216;-78
2021/03/14 08:28:27;;;;;;;3.80;1.73;;;;;;;14.09;46.84;98414.84;5107693;27;39504;-78
2021/03/14 08:30:59;;;;;;;4.03;1.80;;;;;;;15.25;45.88;98395.00;5091014;28;41451;-78
2021/03/14 08:33:39;;;;;;;2.67;1.30;;;;;;;15.15;42.04;98432.31;5108064;27;43034;-79
2021/03/14 08:36:13;;;;;;;3.30;1.50;;;;;;;14.23;44.27;98433.16;5106821;28;42906;-78
2021/03/14 08:38:47;;;;;;;3.50;1.93;;;;;;;13.39;46.39;98418.81;5107209;28;39004;-78
2021/03/14 08:41:22;;;;;;;4.40;1.40;;;;;;;12.77;46.69;98407.84;5089809;28;40778;-77
2021/03/14 08:43:56;;;;;;;3.47;1.47;;;;;;;12.27;47.75;98415.28;5102736;28;42391;-79
2021/03/14 08:47:06;;;;;;;2.23;1.37;;;;;;;11.86;49.61;98405.16;5103097;28;43023;-78
2021/03/14 08:49:42;;;;;;;3.00;1.40;;;;;;;11.66;50.09;98408.38;5105144;28;40441;-78
2021/03/14 08:52:10;;;;;;;2.63;1.50;;;;;;;11.67;50.11;98413.59;5089973;28;40819;-77
2021/03/14 08:54:49;;;;;;;10.07;7.57;;;;;;;11.49;50.05;98397.25;5107984;28;43401;-79
2021/03/14 08:57:21;;;;;;;4.80;1.70;;;;;;;11.29;50.24;98405.78;5092943;28;42485;-78
2021/03/14 08:59:52;;;;;;;5.23;1.57;;;;;;;11.07;51.10;98411.78;5092939;28;40187;-77
2021/03/14 09:02:22;;;;;;;4.43;1.47;;;;;;;10.64;51.97;98398.06;5092488;28;43221;-78
2021/03/14 09:04:50;;;;;;;4.83;1.40;;;;;;;10.59;52.71;98402.00;5092680;28;42614;-78
2021/03/14 09:07:41;;;;;;;5.00;1.47;;;;;;;10.59;53.60;98409.97;5088169;28;41421;-79
2021/03/14 09:10:11;;;;;;;4.47;1.60;;;;;;;10.24;52.02;98360.31;5091033;28;40806;-79
2021/03/14 09:12:58;;;;;;;3.13;1.60;;;;;;;10.47;51.65;98363.16;5093467;28;41696;-79
2021/03/14 09:15:49;;;;;;;5.20;1.40;;;;;;;10.92;50.19;98423.47;5108078;28;42890;-76
2021/03/14 09:18:30;;;;;;;3.40;1.40;;;;;;;11.07;49.71;98413.59;5113254;28;42814;-78
2021/03/14 09:21:09;;;;;;;5.90;1.30;;;;;;;11.29;49.57;98420.84;5111994;28;40056;-78
2021/03/14 09:23:45;;;;;;;3.33;1.17;;;;;;;11.64;48.91;98432.38;5092837;28;42466;-77
2021/03/14 09:26:28;;;;;;;4.67;1.43;;;;;;;12.08;48.75;98438.88;5092886;28;42817;-78
2021/03/14 09:28:58;;;;;;;2.43;1.03;;;;;;;12.08;48.84;98425.59;5094004;28;42774;-77
2021/03/14 09:31:27;;;;;;;4.47;1.37;;;;;;;12.26;47.43;98456.06;5106948;28;40485;-78
2021/03/14 09:34:06;;;;;;;6.10;1.37;;;;;;;12.61;46.54;98449.88;5112890;28;41667;-80
2021/03/14 09:36:48;;;;;;;4.03;1.47;;;;;;;13.25;45.13;98466.94;5112703;28;43222;-82
2021/03/14 09:39:21;;;;;;;3.43;1.30;;;;;;;13.75;42.56;98489.50;5112801;28;42280;-79
2021/03/14 09:42:09;;;;;;;3.07;1.13;;;;;;;13.21;41.83;98489.47;5094121;28;39905;-77
2021/03/14 09:45:04;;;;;;;3.77;1.20;;;;;;;12.90;42.03;98498.94;5111470;28;42447;-81
2021/03/14 09:47:34;;;;;;;3.77;1.57;;;;;;;13.32;41.50;98467.31;5094203;28;44471;-80
2021/03/14 09:50:10;;;;;;;1.83;1.00;;;;;;;14.33;39.44;98501.53;5110428;28;42250;-80
2021/03/14 09:52:47;;;;;;;2.17;1.10;;;;;;;13.71;40.49;98497.88;5095051;28;39540;-81
2021/03/14 09:55:22;;;;;;;4.23;1.30;;;;;;;13.12;41.27;98471.53;5104333;28;41947;-77
2021/03/14 09:57:50;;;;;;;1.67;1.00;;;;;;;13.02;41.69;98497.97;5110079;28;42480;-77
2021/03/14 10:00:27;;;;;;;1.43;0.93;;;;;;;12.86;41.71;98493.00;5110182;28;42142;-80
2021/03/14 10:03:01;;;;;;;2.60;1.20;;;;;;;13.16;41.05;98484.50;5095216;28;40855;-79
2021/03/14 10:05:49;;;;;;;2.43;1.10;;;;;;;14.81;39.36;98502.88;5110735;27;40572;-81
2021/03/14 10:08:22;;;;;;;4.73;1.40;;;;;;;15.09;38.42;98512.84;5093320;28;42110;-80
2021/03/14 10:10:51;;;;;;;2.20;1.30;;;;;;;14.88;37.76;98501.38;5092989;28;43408;-79
2021/03/14 10:13:24;;;;;;;2.47;1.40;;;;;;;15.87;36.10;98520.19;5089420;28;40906;-78
2021/03/14 10:15:51;;;;;;;2.00;1.10;;;;;;;17.27;34.46;98538.47;5107990;28;41525;-78
2021/03/14 10:18:20;;;;;;;2.57;0.90;;;;;;;17.52;32.56;98544.00;5109875;28;42682;-77
2021/03/14 10:20:49;;;;;;;2.93;1.23;;;;;;;17.12;34.03;98536.25;5093581;28;41222;-77
2021/03/14 10:23:24;;;;;;;3.23;1.23;;;;;;;18.75;31.85;98541.72;5095343;28;39675;-78
2021/03/14 10:26:29;;;;;;;1.83;0.87;;;;;;;21.20;28.57;98557.81;5110302;28;42220;-79
2021/03/14 10:29:14;;;;;;;1.67;1.00;;;;;;;21.76;27.57;98557.66;5110517;28;42588;-77
2021/03/14 10:31:59;;;;;;;3.57;1.37;;;;;;;20.87;28.64;98536.28;5073477;28;42108;-76
2021/03/14 10:34:36;;;;;;;1.77;1.10;;;;;;;21.50;28.46;98549.84;5074893;28;40251;-76
2021/03/14 10:37:04;;;;;;;2.87;1.30;;;;;;;23.33;26.51;98543.84;5091421;28;40626;-80
2021/03/14 10:39:34;;;;;;;2.47;1.00;;;;;;;24.50;24.23;98564.59;5094672;28;42103;-80
2021/03/14 10:42:36;;;;;;;3.13;1.10;;;;;;;25.80;23.27;98571.41;5094794;28;43412;-78
2021/03/14 10:45:12;;;;;;;2.63;1.20;;;;;;;26.45;21.36;98595.34;5111946;28;40197;-78
2021/03/14 10:47:42;;;;;;;2.57;1.43;;;;;;;24.43;23.00;98586.19;5091142;28;40776;-77
2021/03/14 10:50:18;;;;;;;2.90;1.20;;;;;;;24.24;22.92;98570.53;5125045;27;42530;-81
2021/03/14 10:53:07;;;;;;;2.43;1.20;;;;;;;26.29;21.34;98579.41;5090694;28;42302;-77
2021/03/14 10:55:37;;;;;;;3.70;1.67;;;;;;;28.39;19.37;98579.66;5087168;28;39893;-76
2021/03/14 10:58:09;;;;;;;3.77;1.50;;;;;;;29.58;18.07;98588.72;5094547;28;40946;-77
2021/03/14 11:00:41;;;;;;;3.23;1.23;;;;;;;30.90;17.84;98581.75;5112801;27;43252;-79
2021/03/14 11:03:12;;;;;;;2.93;1.50;;;;;;;31.72;16.65;98588.22;5124834;27;42567;-78
2021/03/14 11:05:42;;;;;;;2.40;1.70;;;;;;;32.57;16.36;98573.91;5074385;28;39988;-77
2021/03/14 11:08:10;;;;;;;3.37;2.00;;;;;;;33.60;15.42;98586.50;5074194;28;40733;-78
2021/03/14 11:10:56;;;;;;;2.00;1.17;;;;;;;33.52;14.48;98578.66;5119942;27;42103;-79
2021/03/14 11:13:43;;;;;;;1.60;1.00;;;;;;;32.96;16.26;98555.75;5111204;27;42274;-79
2021/03/14 11:16:30;;;;;;;2.40;1.20;;;;;;;34.02;15.43;98544.81;5110107;28;38740;-77
2021/03/14 11:19:07;;;;;;;3.13;1.50;;;;;;;34.66;14.15;98569.81;5110524;28;41149;-76
2021/03/14 11:21:54;;;;;;;1.83;1.17;;;;;;;34.19;14.67;98575.81;5110466;28;41557;-77
2021/03/14 11:24:28;;;;;;;1.43;0.90;;;;;;;33.59;15.01;98546.38;5094308;28;41286;-77
2021/03/14 11:26:57;;;;;;;5.67;1.20;;;;;;;30.68;15.76;98581.41;5090396;28;40246;-78
2021/03/14 11:29:26;;;;;;;1.77;1.27;;;;;;;31.32;16.09;98563.41;5090753;28;41903;-76
2021/03/14 11:32:03;;;;;;;2.30;1.23;;;;;;;30.32;16.64;98563.16;5101176;27;42768;-78
2021/03/14 11:34:31;;;;;;;1.47;0.90;;;;;;;30.46;16.34;98562.97;5131004;27;42260;-79
2021/03/14 11:37:16;;;;;;;2.83;1.40;;;;;;;27.89;18.33;98561.16;5132717;27;39691;-80
2021/03/14 11:39:58;;;;;;;2.80;1.20;;;;;;;25.45;20.02;98539.84;5131364;27;41639;-76
2021/03/14 11:42:35;;;;;;;1.20;0.80;;;;;;;24.06;21.56;98497.03;5110126;28;43492;-77
2021/03/14 11:45:25;;;;;;;2.17;1.03;;;;;;;23.52;21.93;98533.34;5144689;27;42977;-78
2021/03/14 11:47:53;;;;;;;1.83;0.90;;;;;;;22.87;23.00;98531.25;5109887;28;41237;-77
2021/03/14 11:50:41;;;;;;;2.23;1.10;;;;;;;21.71;22.97;98530.41;5088597;27;42673;-78
2021/03/14 11:53:11;;;;;;;4.10;1.27;;;;;;;20.52;24.30;98509.69;5142517;27;42352;-77
2021/03/14 11:55:45;;;;;;;4.43;1.47;;;;;;;19.28;25.72;98503.19;5127847;27;41309;-78
2021/03/14 11:58:14;;;;;;;2.30;1.40;;;;;;;18.60;27.70;98497.66;5107139;28;40081;-78